Time;durP1;ratioP1;P1;durP2;ratioP2;P2;SDS_P1;SDS_P2;PMS_P1;PMS_P2;Temp;Humidity;BMP_temperature;BMP_pressure;BME280_temperature;BME280_humidity;BME280_pressure;Samples;Min_cycle;Max_cycle;Signal;HPM_P1;HPM_P2
2021/05/08 00:00:06;;;;;;;3.38;2.35;;;;;;;19.04;29.77;101671.63;4178121;28;20749;-49
2021/05/08 00:02:06;;;;;;;4.32;2.05;;;;;;;19.06;29.78;101668.59;4171968;28;20458;-46
2021/05/08 00:04:07;;;;;;;2.83;2.20;;;;;;;18.94;29.80;101665.13;4179765;28;20032;-46
2021/05/08 00:06:08;;;;;;;2.17;2.00;;;;;;;18.95;30.01;101664.84;4171280;28;20034;-47
2021/05/08 00:08:09;;;;;;;2.42;1.70;;;;;;;18.92;29.83;101661.78;4175724;28;20033;-49
2021/05/08 00:10:12;;;;;;;3.55;2.28;;;;;;;18.95;29.77;101648.22;4176010;28;20047;-51
2021/05/08 00:12:13;;;;;;;2.00;1.80;;;;;;;18.93;29.70;101658.75;4181163;28;20036;-52
2021/05/08 00:14:13;;;;;;;3.90;2.10;;;;;;;18.95;29.95;101655.72;4175740;28;20043;-49
2021/05/08 00:16:14;;;;;;;4.00;1.80;;;;;;;18.93;29.91;101650.41;4188707;28;20103;-50
2021/05/08 00:18:14;;;;;;;2.35;2.15;;;;;;;18.91;29.91;101652.63;4173263;28;20040;-49
2021/05/08 00:20:15;;;;;;;2.58;2.10;;;;;;;18.86;29.79;101653.41;4178183;28;20043;-49
2021/05/08 00:22:16;;;;;;;3.00;2.20;;;;;;;18.84;29.92;101646.44;4178202;28;20047;-49
2021/05/08 00:24:17;;;;;;;4.15;2.25;;;;;;;18.74;29.94;101627.75;4176134;28;20033;-48
2021/05/08 00:26:17;;;;;;;5.95;2.28;;;;;;;18.81;30.12;101633.91;4178923;28;20550;-48
2021/05/08 00:28:18;;;;;;;3.72;2.55;;;;;;;18.77;29.99;101632.78;4170303;28;20029;-48
2021/05/08 00:30:18;;;;;;;4.65;2.40;;;;;;;18.79;29.90;101636.13;4175283;28;20132;-48
2021/05/08 00:32:19;;;;;;;3.63;2.25;;;;;;;18.65;30.19;101641.22;4170318;28;20523;-51
2021/05/08 00:34:19;;;;;;;2.95;2.30;;;;;;;18.77;30.13;101646.63;4173747;28;20029;-48
2021/05/08 00:36:19;;;;;;;3.28;2.42;;;;;;;18.71;30.08;101628.25;4177426;28;20037;-49
2021/05/08 00:38:20;;;;;;;2.53;2.33;;;;;;;18.65;30.11;101641.22;4190245;28;20051;-49
2021/05/08 00:40:21;;;;;;;2.78;2.20;;;;;;;18.76;29.96;101635.81;4174360;28;20044;-49
2021/05/08 00:42:21;;;;;;;5.40;2.65;;;;;;;18.62;29.81;101624.25;4180665;28;20098;-50
2021/05/08 00:44:21;;;;;;;4.35;2.50;;;;;;;18.59;29.95;101619.22;4175463;28;20051;-49
2021/05/08 00:46:26;;;;;;;3.72;2.22;;;;;;;18.58;30.07;101631.41;4178434;28;20091;-47
2021/05/08 00:48:28;;;;;;;5.78;2.53;;;;;;;18.67;30.04;101638.19;4184966;28;20535;-49
2021/05/08 00:50:29;;;;;;;2.60;2.40;;;;;;;18.60;29.94;101630.06;4178130;28;20143;-53
2021/05/08 00:52:29;;;;;;;2.67;2.47;;;;;;;18.57;30.22;101624.19;4176851;28;20071;-49
2021/05/08 00:54:30;;;;;;;2.97;2.78;;;;;;;18.55;30.11;101629.16;4176609;28;20112;-48
2021/05/08 00:56:30;;;;;;;2.97;2.70;;;;;;;18.55;30.03;101616.13;4176817;28;20038;-49
2021/05/08 00:58:30;;;;;;;2.60;2.40;;;;;;;18.50;29.90;101611.34;4173395;28;20523;-47
2021/05/08 01:00:31;;;;;;;3.22;2.92;;;;;;;18.43;29.93;101601.53;4157734;28;20044;-48
2021/05/08 01:02:31;;;;;;;2.95;2.22;;;;;;;18.56;30.10;101616.97;4176653;28;20045;-46
2021/05/08 01:04:32;;;;;;;3.35;2.72;;;;;;;18.49;30.17;101619.91;4190242;28;20036;-49
2021/05/08 01:06:34;;;;;;;2.60;2.00;;;;;;;18.36;30.21;101621.16;4177315;28;20142;-50
2021/05/08 01:08:35;;;;;;;2.55;2.13;;;;;;;18.42;30.23;101619.28;4185221;28;20036;-48
2021/05/08 01:10:35;;;;;;;2.05;1.95;;;;;;;18.33;30.30;101602.25;4179326;28;20041;-49
2021/05/08 01:12:37;;;;;;;3.13;2.70;;;;;;;18.43;30.19;101607.94;4178378;28;20075;-49
2021/05/08 01:14:39;;;;;;;4.50;2.38;;;;;;;18.31;30.37;101618.31;4183951;28;20082;-49
2021/05/08 01:16:39;;;;;;;2.55;2.30;;;;;;;18.29;30.14;101615.78;4175334;28;20033;-52
2021/05/08 01:18:40;;;;;;;2.90;2.70;;;;;;;18.26;30.39;101616.28;4177546;28;20687;-48
2021/05/08 01:20:42;;;;;;;2.10;1.90;;;;;;;18.20;30.41;101610.91;4172374;28;20029;-48
2021/05/08 01:22:42;;;;;;;3.60;2.72;;;;;;;18.24;30.29;101579.66;4174408;28;20088;-47
2021/05/08 01:24:43;;;;;;;2.83;2.30;;;;;;;18.36;30.41;101610.06;4169294;28;20037;-47
2021/05/08 01:26:43;;;;;;;3.30;2.60;;;;;;;;;;4171863;28;20040;-47
2021/05/08 01:28:44;;;;;;;2.22;2.00;;;;;;;18.27;30.18;101609.63;4177846;28;20454;-50
2021/05/08 01:30:45;;;;;;;2.72;2.53;;;;;;;18.31;30.13;101596.16;4176675;28;20036;-47
2021/05/08 01:32:46;;;;;;;2.63;2.42;;;;;;;18.29;30.14;101612.16;4176421;28;20021;-47
2021/05/08 01:34:47;;;;;;;2.40;2.30;;;;;;;18.04;30.22;101576.63;4184742;28;20032;-47
2021/05/08 01:36:47;;;;;;;2.20;2.00;;;;;;;18.30;29.81;101599.97;4176641;28;20017;-47
2021/05/08 01:38:48;;;;;;;2.45;2.25;;;;;;;18.24;30.21;101596.28;4176591;28;20044;-47
2021/05/08 01:41:02;;;;;;;2.58;2.38;;;;;;;18.15;30.39;101592.28;4171922;28;20079;-50
2021/05/08 01:43:03;;;;;;;2.28;2.08;;;;;;;18.12;30.32;101592.78;4179387;28;20029;-48
2021/05/08 01:45:12;;;;;;;2.95;2.42;;;;;;;18.09;30.20;101574.78;4174250;28;20037;-49
2021/05/08 01:47:12;;;;;;;2.40;2.20;;;;;;;18.18;30.31;101578.78;4174470;28;20033;-48
2021/05/08 01:49:13;;;;;;;2.83;2.30;;;;;;;18.15;30.13;101581.19;4176133;28;20032;-48
2021/05/08 01:51:13;;;;;;;2.70;2.50;;;;;;;18.15;30.35;101590.38;4177699;28;20029;-49
2021/05/08 01:53:14;;;;;;;2.80;2.60;;;;;;;18.13;30.34;101586.16;4174559;28;20152;-48
2021/05/08 01:55:17;;;;;;;2.28;2.13;;;;;;;18.10;30.20;101578.38;4176821;28;20754;-49
2021/05/08 01:57:17;;;;;;;2.67;2.47;;;;;;;18.02;30.24;101581.59;4176194;28;20041;-50
2021/05/08 01:59:18;;;;;;;2.92;2.10;;;;;;;18.02;30.16;101585.19;4175256;28;20680;-51
2021/05/08 02:01:18;;;;;;;2.20;2.00;;;;;;;18.02;30.17;101582.41;4171386;28;20140;-48
2021/05/08 02:03:18;;;;;;;2.88;2.50;;;;;;;17.92;30.45;101583.13;4174937;28;20094;-49
2021/05/08 02:05:21;;;;;;;2.47;2.20;;;;;;;18.05;30.41;101578.31;4174667;28;20060;-48
2021/05/08 02:07:21;;;;;;;2.50;2.30;;;;;;;17.92;30.57;101577.56;4168708;28;20523;-51
2021/05/08 02:09:21;;;;;;;2.08;1.98;;;;;;;17.98;30.37;101581.25;4174557;28;20146;-51
2021/05/08 02:11:22;;;;;;;3.33;2.35;;;;;;;17.88;30.47;101573.63;4176626;28;20044;-50
2021/05/08 02:13:23;;;;;;;2.45;2.25;;;;;;;17.79;30.54;101569.63;4174982;28;20032;-48
2021/05/08 02:15:23;;;;;;;2.25;2.15;;;;;;;17.90;30.48;101568.66;4174617;28;20099;-50
2021/05/08 02:17:24;;;;;;;2.83;1.95;;;;;;;17.91;30.36;101575.88;4180862;28;20711;-49
2021/05/08 02:19:24;;;;;;;3.95;2.50;;;;;;;17.79;30.56;101564.06;4176661;28;20034;-47
2021/05/08 02:21:25;;;;;;;2.75;2.30;;;;;;;17.90;30.41;101567.84;4182550;28;20032;-46
2021/05/08 02:23:25;;;;;;;2.97;2.33;;;;;;;17.88;30.41;101573.63;4165557;28;20040;-48
2021/05/08 02:25:26;;;;;;;3.22;2.70;;;;;;;17.75;30.59;101569.28;4170687;28;20107;-47
2021/05/08 02:27:27;;;;;;;2.70;2.50;;;;;;;17.76;30.57;101562.66;4179273;28;20037;-48
2021/05/08 02:29:27;;;;;;;2.60;2.40;;;;;;;17.91;30.38;101564.81;4174566;28;20054;-47
2021/05/08 02:31:28;;;;;;;2.80;2.50;;;;;;;17.77;30.51;101561.56;4178934;28;20095;-49
2021/05/08 02:33:28;;;;;;;2.72;2.42;;;;;;;17.75;30.64;101561.00;4179678;28;20045;-50
2021/05/08 02:35:29;;;;;;;3.08;2.88;;;;;;;17.71;30.53;101551.50;4176571;28;20044;-52
2021/05/08 02:37:30;;;;;;;2.88;2.67;;;;;;;17.73;30.49;101549.31;4179298;28;20037;-51
2021/05/08 02:39:30;;;;;;;3.45;3.15;;;;;;;17.60;30.77;101552.44;4175899;28;20029;-48
2021/05/08 02:41:31;;;;;;;3.75;3.53;;;;;;;17.70;30.48;101546.22;4176754;28;20041;-50
2021/05/08 02:43:31;;;;;;;2.78;2.58;;;;;;;17.76;30.35;101542.44;4176575;28;20457;-48
2021/05/08 02:45:32;;;;;;;2.50;2.30;;;;;;;17.77;30.35;101549.66;4179815;28;20075;-48
2021/05/08 02:47:33;;;;;;;3.47;3.10;;;;;;;17.65;30.69;101541.44;4178996;28;20021;-47
2021/05/08 02:49:33;;;;;;;3.20;3.00;;;;;;;17.67;30.34;101536.47;4177118;28;20036;-48
2021/05/08 02:51:33;;;;;;;2.90;2.70;;;;;;;17.64;30.43;101532.31;4179612;28;20873;-48
2021/05/08 02:53:34;;;;;;;2.65;2.53;;;;;;;17.64;30.46;101540.63;4171515;28;20075;-48
2021/05/08 02:55:34;;;;;;;2.78;2.55;;;;;;;17.61;30.45;101543.88;4174970;28;20091;-49
2021/05/08 02:57:36;;;;;;;3.15;2.95;;;;;;;17.60;30.56;101535.84;4170087;28;20060;-50
2021/05/08 02:59:36;;;;;;;3.38;2.58;;;;;;;17.62;30.53;101526.16;4173178;28;20503;-48
2021/05/08 03:01:37;;;;;;;3.60;3.40;;;;;;;17.59;30.42;101528.63;4170823;28;20037;-48
2021/05/08 03:03:37;;;;;;;3.42;3.13;;;;;;;17.55;30.33;101528.28;4176646;28;20075;-49
2021/05/08 03:05:38;;;;;;;2.90;2.70;;;;;;;17.54;30.59;101523.84;4176324;28;20025;-49
2021/05/08 03:07:38;;;;;;;3.22;2.90;;;;;;;17.48;30.57;101518.47;4181946;28;20047;-51
2021/05/08 03:09:39;;;;;;;2.88;2.63;;;;;;;17.48;30.67;101519.28;4178010;28;20040;-50
2021/05/08 03:11:39;;;;;;;2.75;2.55;;;;;;;17.55;30.45;101521.91;4174868;28;20542;-52
2021/05/08 03:13:40;;;;;;;3.30;3.10;;;;;;;17.45;30.53;101505.94;4177323;28;20041;-48
2021/05/08 03:15:40;;;;;;;2.55;2.35;;;;;;;17.57;30.46;101533.56;4172469;28;20087;-48
2021/05/08 03:17:40;;;;;;;3.30;3.00;;;;;;;17.57;30.41;101526.09;4182826;28;20099;-49
2021/05/08 03:19:41;;;;;;;4.38;3.97;;;;;;;17.54;30.49;101520.25;4186505;28;20033;-48
2021/05/08 03:21:42;;;;;;;3.10;2.90;;;;;;;17.49;30.45;101517.34;4174216;28;20033;-48
2021/05/08 03:23:42;;;;;;;4.00;3.70;;;;;;;17.51;30.40;101520.75;4176885;28;20029;-52
2021/05/08 03:25:43;;;;;;;2.63;2.42;;;;;;;17.49;30.50;101514.56;4178318;28;20506;-53
2021/05/08 03:27:43;;;;;;;3.50;3.20;;;;;;;17.43;29.94;101511.75;4180692;28;20051;-47
2021/05/08 03:29:43;;;;;;;2.22;2.08;;;;;;;17.38;30.39;101514.44;4181078;28;20041;-50
2021/05/08 03:31:44;;;;;;;3.00;2.38;;;;;;;17.48;30.58;101507.38;4175342;28;20041;-50
2021/05/08 03:33:44;;;;;;;2.90;2.70;;;;;;;17.48;30.32;101507.38;4182814;28;20584;-48
2021/05/08 03:35:45;;;;;;;2.80;2.60;;;;;;;17.45;30.36;101505.94;4184992;28;20454;-47
2021/05/08 03:37:45;;;;;;;3.20;3.00;;;;;;;17.42;30.18;101504.53;4176219;28;20033;-50
2021/05/08 03:39:46;;;;;;;2.95;2.75;;;;;;;17.37;30.47;101506.38;4176214;28;20028;-48
2021/05/08 03:41:46;;;;;;;2.97;2.78;;;;;;;17.36;30.58;101508.31;4176427;28;20036;-48
2021/05/08 03:43:47;;;;;;;2.80;2.60;;;;;;;17.36;30.48;101502.75;4181511;28;20679;-47
2021/05/08 03:45:49;;;;;;;4.28;3.97;;;;;;;17.35;30.50;101494.72;4161856;28;20036;-51
2021/05/08 03:47:49;;;;;;;3.17;2.97;;;;;;;17.38;30.52;101500.59;4174931;28;20033;-51
2021/05/08 03:49:50;;;;;;;2.65;2.45;;;;;;;17.43;30.36;101502.59;4184095;28;20078;-47
2021/05/08 03:51:58;;;;;;;2.40;2.20;;;;;;;17.31;30.51;101499.94;4174369;28;20033;-50
2021/05/08 03:53:59;;;;;;;2.60;2.50;;;;;;;17.27;30.56;101495.97;4177184;28;20094;-48
2021/05/08 03:56:01;;;;;;;2.13;2.03;;;;;;;17.21;30.75;101489.53;4181060;28;20032;-48
2021/05/08 03:58:01;;;;;;;1.90;1.80;;;;;;;17.23;30.57;101492.88;4174022;28;20075;-48
2021/05/08 04:00:03;;;;;;;2.78;2.58;;;;;;;17.25;30.61;101495.41;4187865;28;20505;-46
2021/05/08 04:02:03;;;;;;;2.38;2.17;;;;;;;17.18;30.68;101494.72;4177832;28;20083;-47
2021/05/08 04:04:04;;;;;;;3.45;3.25;;;;;;;17.19;30.66;101488.09;4176066;28;20028;-52
2021/05/08 04:06:05;;;;;;;3.05;2.78;;;;;;;17.21;30.59;101495.06;4180354;28;20036;-47
2021/05/08 04:08:05;;;;;;;3.13;2.92;;;;;;;17.14;30.74;101490.81;4176974;28;20025;-49
2021/05/08 04:10:06;;;;;;;2.63;2.42;;;;;;;17.25;30.50;101487.94;4178167;28;20479;-49
2021/05/08 04:12:06;;;;;;;2.40;2.20;;;;;;;17.15;30.65;101484.16;4175955;28;20104;-48
2021/05/08 04:14:07;;;;;;;3.42;2.03;;;;;;;17.18;30.86;101484.50;4177958;28;20416;-49
2021/05/08 04:16:07;;;;;;;2.75;2.28;;;;;;;17.14;30.77;101479.75;4178617;28;20013;-50
2021/05/08 04:18:08;;;;;;;2.83;2.63;;;;;;;17.16;30.71;101480.31;4173041;28;20483;-47
2021/05/08 04:20:09;;;;;;;2.30;2.10;;;;;;;17.13;30.72;101481.66;4183463;28;20037;-48
2021/05/08 04:22:10;;;;;;;3.42;2.75;;;;;;;17.05;30.73;101474.63;4171607;28;20490;-47
2021/05/08 04:24:11;;;;;;;2.45;2.25;;;;;;;17.03;30.95;101478.72;4173826;28;20033;-48
2021/05/08 04:26:11;;;;;;;1.85;1.75;;;;;;;17.01;30.83;101467.91;4175994;28;20049;-46
2021/05/08 04:28:12;;;;;;;2.65;2.53;;;;;;;17.06;31.01;101465.22;4182048;28;20033;-50
2021/05/08 04:30:13;;;;;;;2.25;2.05;;;;;;;17.15;30.54;101459.25;4185236;28;20391;-47
2021/05/08 04:32:13;;;;;;;5.85;2.97;;;;;;;17.17;30.71;101469.00;4180233;28;20056;-50
2021/05/08 04:34:13;;;;;;;2.97;2.78;;;;;;;17.18;30.76;101467.91;4173607;28;20044;-50
2021/05/08 04:36:14;;;;;;;2.38;2.28;;;;;;;17.15;30.85;101478.63;4179100;28;20040;-50
2021/05/08 04:38:15;;;;;;;2.38;2.17;;;;;;;17.10;30.89;101471.09;4178535;28;20029;-47
2021/05/08 04:40:15;;;;;;;2.42;2.00;;;;;;;17.13;30.84;101473.34;4178718;28;20037;-46
2021/05/08 04:42:15;;;;;;;2.33;2.22;;;;;;;17.14;30.90;101466.72;4184186;28;20044;-50
2021/05/08 04:44:16;;;;;;;2.10;2.00;;;;;;;17.05;30.82;101462.72;4173131;28;20049;-48
2021/05/08 04:46:16;;;;;;;6.20;2.03;;;;;;;17.11;30.91;101468.06;4181155;28;20028;-49
2021/05/08 04:48:24;;;;;;;2.60;2.40;;;;;;;17.04;30.85;101459.13;4171640;28;20680;-47
2021/05/08 04:50:25;;;;;;;2.55;2.45;;;;;;;17.08;30.94;101464.97;4176555;28;20394;-48
2021/05/08 04:52:26;;;;;;;2.08;1.98;;;;;;;17.05;30.96;101463.56;4187380;28;20024;-46
2021/05/08 04:54:26;;;;;;;2.35;2.25;;;;;;;17.07;31.08;101466.91;4171910;28;20530;-50
2021/05/08 04:56:27;;;;;;;2.45;2.35;;;;;;;17.09;30.84;101458.38;4178874;28;20039;-50
2021/05/08 04:58:27;;;;;;;2.53;2.42;;;;;;;17.02;30.89;101461.31;4181046;28;20122;-48
2021/05/08 05:00:27;;;;;;;3.15;2.95;;;;;;;16.97;30.90;101444.63;4174660;28;20044;-50
2021/05/08 05:02:28;;;;;;;2.30;2.10;;;;;;;17.03;30.98;101465.72;4173481;28;20393;-50
2021/05/08 05:04:28;;;;;;;1.95;1.75;;;;;;;17.04;31.05;101459.13;4175587;28;20086;-49
2021/05/08 05:06:28;;;;;;;1.98;1.77;;;;;;;17.10;30.99;101454.50;4177804;28;20041;-48
2021/05/08 05:08:29;;;;;;;2.25;2.05;;;;;;;17.16;31.01;101463.72;4175209;28;20172;-52
2021/05/08 05:10:30;;;;;;;3.20;3.00;;;;;;;17.13;31.04;101465.06;4181764;28;20484;-49
2021/05/08 05:12:30;;;;;;;2.97;2.80;;;;;;;17.05;30.99;101458.03;4175661;28;20079;-47
2021/05/08 05:14:31;;;;;;;1.85;1.75;;;;;;;17.08;30.79;101446.44;4175329;28;20087;-49
2021/05/08 05:16:32;;;;;;;2.65;2.45;;;;;;;17.09;30.95;101450.91;4182960;28;20456;-48
2021/05/08 05:18:32;;;;;;;3.67;3.38;;;;;;;17.05;31.04;101452.50;4160445;28;20032;-50
2021/05/08 05:20:32;;;;;;;3.05;2.85;;;;;;;17.04;31.01;101450.81;4178751;28;20782;-47
2021/05/08 05:22:33;;;;;;;2.40;1.92;;;;;;;16.99;31.11;101439.69;4175330;28;20033;-49
2021/05/08 05:24:33;;;;;;;2.95;2.65;;;;;;;17.00;30.91;101446.03;4171812;28;20055;-49
2021/05/08 05:26:34;;;;;;;2.15;2.05;;;;;;;17.02;30.98;101452.16;4176165;28;20161;-49
2021/05/08 05:28:34;;;;;;;2.85;2.50;;;;;;;17.08;30.92;101456.69;4176221;28;20025;-50
2021/05/08 05:30:35;;;;;;;4.63;4.15;;;;;;;17.00;30.95;101457.94;4174523;28;20394;-50
2021/05/08 05:32:35;;;;;;;2.40;2.17;;;;;;;17.07;30.93;101455.03;4170303;28;20041;-49
2021/05/08 05:34:36;;;;;;;2.00;1.83;;;;;;;17.09;30.80;101458.38;4172727;28;20045;-47
2021/05/08 05:36:36;;;;;;;2.25;1.88;;;;;;;17.09;30.59;101447.31;4176022;28;20033;-48
2021/05/08 05:38:36;;;;;;;2.33;2.17;;;;;;;17.09;30.99;101448.13;4173159;28;20041;-52
2021/05/08 05:40:37;;;;;;;2.33;2.20;;;;;;;17.07;30.90;101439.25;4173854;28;20028;-48
2021/05/08 05:42:39;;;;;;;2.00;1.80;;;;;;;17.07;30.94;101428.19;4179730;28;20032;-49
2021/05/08 05:44:39;;;;;;;2.25;2.15;;;;;;;17.11;30.90;101448.72;4172760;28;20056;-46
2021/05/08 05:46:39;;;;;;;2.17;2.08;;;;;;;17.12;30.89;101438.50;4173459;28;20424;-49
2021/05/08 05:48:40;;;;;;;2.97;2.78;;;;;;;17.03;30.65;101424.25;4178166;28;20052;-48
2021/05/08 05:50:42;;;;;;;4.65;2.50;;;;;;;17.05;30.92;101416.56;4172258;28;20029;-47
2021/05/08 05:52:42;;;;;;;2.50;1.85;;;;;;;17.17;30.88;101424.75;4168510;28;20033;-49
2021/05/08 05:54:45;;;;;;;2.63;2.47;;;;;;;17.17;31.04;101426.69;4171330;28;20106;-51
2021/05/08 05:56:45;;;;;;;2.63;2.20;;;;;;;17.18;30.97;101418.13;4179219;28;20043;-46
2021/05/08 05:58:45;;;;;;;2.45;1.88;;;;;;;17.09;30.95;101403.88;4182510;28;20123;-47
2021/05/08 06:00:46;;;;;;;2.53;2.10;;;;;;;17.14;30.92;101411.41;4175891;28;20024;-47
2021/05/08 06:02:46;;;;;;;2.97;2.80;;;;;;;17.11;30.92;101403.63;4177722;28;20123;-47
2021/05/08 06:04:47;;;;;;;3.30;2.50;;;;;;;17.17;31.02;101407.31;4174830;28;20645;-46
2021/05/08 06:06:47;;;;;;;2.08;1.98;;;;;;;17.23;30.88;101414.59;4176120;28;20491;-47
2021/05/08 06:08:48;;;;;;;2.38;2.17;;;;;;;17.19;30.96;101408.72;4184824;28;20040;-49
2021/05/08 06:10:48;;;;;;;2.03;1.75;;;;;;;17.17;31.06;101410.06;4178187;28;20037;-48
2021/05/08 06:12:48;;;;;;;3.47;1.50;;;;;;;17.14;31.05;101399.53;4177969;28;20510;-50
2021/05/08 06:14:49;;;;;;;2.22;2.03;;;;;;;17.21;30.91;101401.00;4165998;28;20115;-50
2021/05/08 06:16:50;;;;;;;2.50;1.90;;;;;;;17.22;30.85;101393.53;4173475;28;20041;-48
2021/05/08 06:18:50;;;;;;;2.20;1.98;;;;;;;17.24;31.00;101394.13;4172052;28;20037;-50
2021/05/08 06:20:51;;;;;;;2.10;1.90;;;;;;;17.26;30.89;101386.41;4156452;28;20033;-49
2021/05/08 06:22:52;;;;;;;2.47;1.95;;;;;;;17.24;30.74;101381.13;4175310;28;20139;-52
2021/05/08 06:24:52;;;;;;;2.15;2.05;;;;;;;17.20;30.95;101382.72;4172523;28;20394;-49
2021/05/08 06:26:52;;;;;;;2.67;2.47;;;;;;;17.19;31.08;101380.22;4174734;28;20037;-48
2021/05/08 06:28:53;;;;;;;2.30;2.10;;;;;;;17.20;31.06;101376.38;4175438;28;20037;-47
2021/05/08 06:30:55;;;;;;;2.15;2.05;;;;;;;17.19;31.22;101380.22;4173137;28;20032;-47
2021/05/08 06:32:56;;;;;;;2.22;1.70;;;;;;;17.24;31.11;101372.84;4174427;28;20041;-47
2021/05/08 06:34:56;;;;;;;2.70;2.50;;;;;;;17.21;31.08;101373.34;4179713;28;20033;-49
2021/05/08 06:36:59;;;;;;;3.10;2.25;;;;;;;17.19;31.26;101369.16;4171989;28;20024;-49
2021/05/08 06:38:59;;;;;;;5.30;2.60;;;;;;;16.99;31.84;101365.03;4177746;28;20044;-51
2021/05/08 06:40:59;;;;;;;5.13;2.42;;;;;;;17.09;31.43;101351.31;4177116;28;20032;-51
2021/05/08 06:43:00;;;;;;;4.15;2.80;;;;;;;17.17;31.37;101349.22;4174051;28;20044;-50
2021/05/08 06:45:00;;;;;;;3.72;3.05;;;;;;;17.19;31.30;101347.84;4174673;28;20056;-47
2021/05/08 06:47:01;;;;;;;6.53;3.15;;;;;;;17.27;31.28;101347.44;4172376;28;20032;-48
2021/05/08 06:49:01;;;;;;;3.47;2.15;;;;;;;17.25;31.20;101344.06;4174702;28;20025;-51
2021/05/08 06:51:07;;;;;;;5.97;2.40;;;;;;;17.27;31.22;101336.38;4168407;28;20186;-50
2021/05/08 06:53:08;;;;;;;8.85;2.72;;;;;;;17.30;31.28;101337.75;4174105;28;20033;-49
2021/05/08 06:55:08;;;;;;;3.17;2.53;;;;;;;17.25;31.38;101337.69;4175074;28;20540;-47
2021/05/08 06:57:09;;;;;;;8.07;3.25;;;;;;;17.35;31.16;101348.91;4165436;28;20059;-50
2021/05/08 06:59:09;;;;;;;3.75;2.10;;;;;;;17.35;31.26;101343.38;4178358;28;20439;-52
2021/05/08 07:01:10;;;;;;;4.00;2.25;;;;;;;17.38;31.34;101342.88;4178171;28;20040;-49
2021/05/08 07:03:10;;;;;;;4.53;2.05;;;;;;;17.44;31.09;101341.00;4173491;28;20442;-50
2021/05/08 07:05:11;;;;;;;3.13;2.55;;;;;;;17.43;31.19;101337.38;4175464;28;20091;-49
2021/05/08 07:07:11;;;;;;;3.50;2.50;;;;;;;17.43;31.15;101342.94;4186911;28;20435;-51
2021/05/08 07:09:12;;;;;;;2.25;2.05;;;;;;;17.46;31.24;101331.34;4172922;28;20517;-49
2021/05/08 07:11:12;;;;;;;3.50;2.72;;;;;;;17.47;31.30;101326.63;4175250;28;20037;-48
2021/05/08 07:13:14;;;;;;;3.13;2.38;;;;;;;17.53;31.19;101317.34;4177904;28;20475;-52
2021/05/08 07:15:14;;;;;;;4.72;2.38;;;;;;;17.54;30.99;101327.31;4175560;28;20686;-52
2021/05/08 07:17:15;;;;;;;3.50;2.17;;;;;;;17.54;31.31;101327.31;4180230;28;20129;-50
2021/05/08 07:19:15;;;;;;;5.07;3.35;;;;;;;17.57;31.12;101321.25;4172272;28;20037;-51
2021/05/08 07:21:15;;;;;;;2.92;2.63;;;;;;;17.64;31.16;101318.28;4174363;28;20028;-51
2021/05/08 07:23:16;;;;;;;3.30;2.40;;;;;;;17.67;31.10;101319.72;4175007;28;20036;-52
2021/05/08 07:25:17;;;;;;;3.17;2.97;;;;;;;17.67;31.22;101322.47;4173012;28;20051;-48
2021/05/08 07:27:20;;;;;;;2.40;2.15;;;;;;;17.72;31.08;101309.53;4170545;28;20047;-52
2021/05/08 07:29:20;;;;;;;5.13;1.92;;;;;;;17.69;31.10;101306.44;4177486;28;20025;-51
2021/05/08 07:31:21;;;;;;;5.10;2.50;;;;;;;17.75;31.32;101299.84;4173175;28;20028;-49
2021/05/08 07:33:22;;;;;;;4.93;2.42;;;;;;;17.75;31.25;101295.19;4174818;28;20084;-49
2021/05/08 07:35:23;;;;;;;2.63;2.10;;;;;;;17.79;31.28;101304.63;4172907;28;20067;-49
2021/05/08 07:37:23;;;;;;;4.45;2.60;;;;;;;17.84;31.26;101305.78;4175646;28;20116;-50
2021/05/08 07:39:24;;;;;;;4.53;2.60;;;;;;;17.88;31.32;101296.69;4174917;28;20033;-50
2021/05/08 07:41:25;;;;;;;4.03;2.72;;;;;;;17.88;31.38;101298.63;4175184;28;20044;-51
2021/05/08 07:43:25;;;;;;;2.30;1.50;;;;;;;17.92;31.45;101300.63;4172073;28;20052;-51
2021/05/08 07:45:27;;;;;;;3.45;1.70;;;;;;;17.91;31.42;101287.84;4174682;28;20029;-54
2021/05/08 07:47:27;;;;;;;4.40;1.60;;;;;;;18.07;31.32;101310.16;4177299;28;20032;-49
2021/05/08 07:49:28;;;;;;;4.43;2.00;;;;;;;18.09;31.36;101308.81;4170482;28;20041;-47
2021/05/08 07:51:28;;;;;;;3.83;1.90;;;;;;;18.13;31.24;101304.41;4169257;28;20048;-49
2021/05/08 07:53:30;;;;;;;1.83;1.50;;;;;;;18.17;31.22;101300.00;4164031;28;20656;-54
2021/05/08 07:55:30;;;;;;;2.35;2.13;;;;;;;18.14;31.10;101286.69;4166179;28;20043;-48
2021/05/08 07:57:31;;;;;;;2.65;2.35;;;;;;;18.20;31.21;101297.81;4166813;28;20037;-50
2021/05/08 07:59:31;;;;;;;3.72;1.80;;;;;;;18.06;31.24;101253.94;4158729;28;20036;-49
2021/05/08 08:01:32;;;;;;;3.42;1.75;;;;;;;18.34;30.87;101276.91;4169089;28;20123;-49
2021/05/08 08:03:32;;;;;;;4.07;2.00;;;;;;;18.37;31.07;101281.06;4171055;28;20037;-50
2021/05/08 08:05:32;;;;;;;1.67;1.58;;;;;;;18.43;31.06;101283.66;4172921;28;20395;-51
2021/05/08 08:07:33;;;;;;;2.60;1.90;;;;;;;18.47;30.91;101275.63;4174490;28;20613;-51
2021/05/08 08:09:34;;;;;;;4.47;1.40;;;;;;;18.53;30.89;101283.69;4165865;28;20133;-49
2021/05/08 08:11:34;;;;;;;3.05;2.00;;;;;;;18.56;30.95;101287.06;4178045;28;20054;-47
2021/05/08 08:13:35;;;;;;;2.42;1.90;;;;;;;18.65;30.73;101279.91;4171166;28;20115;-51
2021/05/08 08:15:35;;;;;;;3.08;1.60;;;;;;;18.59;30.93;101275.44;4165351;28;20056;-48
2021/05/08 08:17:36;;;;;;;3.90;1.85;;;;;;;18.60;31.10;101275.16;4173345;28;20135;-51
2021/05/08 08:19:36;;;;;;;4.57;2.22;;;;;;;18.76;30.87;101281.66;4170832;28;20044;-53
2021/05/08 08:21:37;;;;;;;7.97;2.10;;;;;;;18.67;30.98;101278.53;4169285;28;20316;-48
2021/05/08 08:23:37;;;;;;;4.07;1.88;;;;;;;18.78;30.94;101278.59;4173192;28;20037;-47
2021/05/08 08:25:39;;;;;;;2.05;1.80;;;;;;;18.79;30.68;101283.88;4162701;28;20112;-48
2021/05/08 08:27:40;;;;;;;2.50;2.13;;;;;;;18.78;30.65;101271.09;4166029;28;20033;-47
2021/05/08 08:29:41;;;;;;;4.30;2.13;;;;;;;18.78;30.64;101271.09;4172403;28;20029;-47
2021/05/08 08:31:42;;;;;;;2.58;2.08;;;;;;;18.82;30.67;101268.66;4176311;28;20029;-47
2021/05/08 08:33:42;;;;;;;3.83;1.80;;;;;;;18.58;30.55;101246.03;4176988;28;20048;-50
2021/05/08 08:35:43;;;;;;;9.95;2.85;;;;;;;18.76;30.97;101272.50;4172133;28;20033;-55
2021/05/08 08:37:43;;;;;;;2.83;2.35;;;;;;;18.84;30.68;101275.59;4165790;28;20033;-53
2021/05/08 08:39:43;;;;;;;3.50;2.22;;;;;;;18.89;30.41;101264.53;4175010;28;20029;-55
2021/05/08 08:41:44;;;;;;;4.10;2.38;;;;;;;18.87;30.47;101269.50;4172037;28;20491;-55
2021/05/08 08:43:46;;;;;;;5.53;2.25;;;;;;;18.87;30.28;101263.13;4169875;28;20502;-53
2021/05/08 08:45:46;;;;;;;2.08;1.65;;;;;;;18.87;30.37;101265.91;4169299;28;20044;-51
2021/05/08 08:47:47;;;;;;;2.63;2.40;;;;;;;18.85;30.46;101265.34;4175622;28;20487;-54
2021/05/08 08:49:48;;;;;;;5.50;2.33;;;;;;;18.82;30.27;101258.38;4174333;28;20029;-49
2021/05/08 08:51:48;;;;;;;2.67;2.40;;;;;;;18.87;30.35;101265.91;4173602;28;20044;-49
2021/05/08 08:53:49;;;;;;;5.13;2.60;;;;;;;18.79;30.55;101247.84;4181335;28;20502;-54
2021/05/08 08:55:55;;;;;;;2.13;1.80;;;;;;;18.82;30.54;101254.78;4175245;28;20728;-54
2021/05/08 08:57:56;;;;;;;2.25;2.05;;;;;;;18.77;30.52;101249.19;4171107;28;20039;-53
2021/05/08 08:59:59;;;;;;;4.15;1.75;;;;;;;18.63;30.46;101235.81;4175319;28;20040;-52
2021/05/08 09:01:59;;;;;;;2.05;1.73;;;;;;;18.86;30.38;101253.97;4174434;28;20075;-55
2021/05/08 09:04:00;;;;;;;2.78;1.58;;;;;;;18.86;30.43;101259.53;4172914;28;20033;-50
2021/05/08 09:06:00;;;;;;;3.35;1.73;;;;;;;18.82;30.45;101250.06;4177055;28;20040;-51
2021/05/08 09:08:02;;;;;;;2.55;1.75;;;;;;;18.92;30.49;101251.22;4173496;28;20071;-51
2021/05/08 09:10:05;;;;;;;1.90;1.70;;;;;;;18.92;30.30;101256.78;4172123;28;20063;-51
2021/05/08 09:12:12;;;;;;;3.10;1.50;;;;;;;18.91;30.40;101247.63;4170839;28;20029;-50
2021/05/08 09:14:24;;;;;;;2.67;2.00;;;;;;;18.97;30.45;101240.16;4167237;28;20428;-53
2021/05/08 09:16:24;;;;;;;5.60;1.52;;;;;;;18.94;30.51;101235.13;4175052;28;20501;-52
2021/05/08 09:18:34;;;;;;;3.17;1.88;;;;;;;19.06;30.17;101249.63;4173867;28;20033;-49
2021/05/08 09:20:41;;;;;;;4.10;1.50;;;;;;;19.02;30.26;101246.56;4174318;28;20041;-51
2021/05/08 09:22:43;;;;;;;2.30;2.03;;;;;;;18.95;30.54;101239.59;4171783;28;20035;-54